Terminal Aerodrome Forecast
Issued by NWS

Current Version | Previous Version | Text Only | Print | Product List | Glossary On
Versions: 1 2 3 4 5 6 7 8 9 10 11 12
000
FTUS45 KGJT 312333
TAFDRO
TAF
KDRO 312333Z 0100/0124 14009KT P6SM FEW100 BKN150
     FM010300 05004KT P6SM FEW080 BKN100
     FM010800 VRB03KT P6SM VCSH SCT050 BKN080
     FM011800 13006KT P6SM VCSH FEW030 OVC050=

USA.gov is the U.S. government's official web portal to all federal, state and local government web resources and services.